Bookmark and Share
Track history (hours):
 

Nevskiy 28

Last reported at 2013-Nov-25 22:33 UTC. Time now 2014-Apr-20 23:53 UTC.
Position N 59°57' E 030°21'.
Warning: this ship's position is months out of date.

Length 110 m; draft 2.4 m.

Type: Cargo ship. MMSI: 273441220.

NotesDate/timePositionNaut miles runAvg speedWind from/ knotsBaromVisibWave heightAir tempDewpointWater temp
2013-Nov-25 22:33N 59°57' E 030°21'3 2.7
2013-Nov-25 21:33N 59°57' E 030°15'0 0.0
2013-Nov-25 20:33N 59°57' E 030°15'0 0.0
2013-Nov-25 19:33N 59°57' E 030°15'0 0.0
2013-Nov-25 18:33N 59°57' E 030°15'0 0.0
2013-Nov-25 17:33N 59°57' E 030°15'0 0.0
2013-Nov-25 16:33N 59°57' E 030°15'0 0.0
2013-Nov-25 15:33N 59°57' E 030°15'2 2.2
2013-Nov-25 14:29N 59°58' E 030°11'0 0.1
2013-Nov-25 10:31N 59°57' E 030°10'1 0.1
2013-Nov-24 15:07N 59°57' E 030°12'0 0.0
2013-Nov-24 12:21N 59°57' E 030°12'2 0.1
2013-Nov-23 21:22N 59°57' E 030°09'3 4.2
2013-Nov-23 20:33N 59°57' E 030°15'0 0.0
2013-Nov-23 19:33N 59°57' E 030°15'0 0.0
2013-Nov-23 18:33N 59°57' E 030°15'3 2.8
2013-Nov-23 17:22N 59°56' E 030°09'2 2.1
2013-Nov-23 16:33N 59°55' E 030°13'0 0.0
2013-Nov-23 15:33N 59°55' E 030°13'0 0.0
2013-Nov-23 10:33N 59°55' E 030°13'0 0.0
2013-Nov-23 09:33N 59°55' E 030°13'0 0.0
2013-Nov-23 08:33N 59°55' E 030°13'0 0.0
2013-Nov-23 07:33N 59°55' E 030°13'0 0.0
2013-Nov-23 06:33N 59°55' E 030°13'0 0.2
2013-Nov-23 05:34N 59°55' E 030°12'1 0.0
2013-Nov-21 21:33N 59°55' E 030°14'1 0.7
2013-Nov-21 20:33N 59°55' E 030°13'0 0.0
2013-Nov-21 19:33N 59°55' E 030°13'0 0.0
2013-Nov-21 18:33N 59°55' E 030°13'0 0.0
2013-Nov-21 17:33N 59°55' E 030°13'3 0.2
2013-Nov-20 23:24N 59°57' E 030°08'2 2.2
2013-Nov-20 22:29N 59°57' E 030°12'0 0.0
2013-Nov-20 20:28N 59°57' E 030°12'0 0.0
2013-Nov-19 22:32N 59°57' E 030°12'0 0.1
2013-Nov-19 21:31N 59°57' E 030°12'0 0.0
2013-Nov-19 20:28N 59°57' E 030°12'  
2013-Nov-16 16:09N 59°54' E 030°08'  

Dump ship's entire track history

sailing weather and tide predictions

Nevskiy 28 — UCGF — position and weather